createdAt,value
2022-09-17T00:01:26.321Z,1.60
2022-09-17T00:03:55.698Z,1.50
2022-09-17T00:06:25.080Z,1.33
2022-09-17T00:08:53.947Z,1.40
2022-09-17T00:11:25.886Z,2.03
2022-09-17T00:13:54.757Z,1.77
2022-09-17T00:16:25.917Z,1.67
2022-09-17T00:18:53.982Z,1.50
2022-09-17T00:21:22.422Z,1.70
2022-09-17T00:23:53.788Z,1.50
2022-09-17T00:26:22.923Z,1.50
2022-09-17T00:28:52.379Z,1.70
2022-09-17T00:31:20.595Z,1.80
2022-09-17T00:33:48.435Z,1.70
2022-09-17T00:36:16.533Z,1.57
2022-09-17T00:38:44.459Z,2.10
2022-09-17T00:41:12.198Z,2.13
2022-09-17T00:43:45.909Z,1.80
2022-09-17T00:46:25.152Z,2.37
2022-09-17T00:48:54.511Z,2.40
2022-09-17T00:51:28.394Z,2.50
2022-09-17T00:53:57.065Z,2.60
2022-09-17T00:56:27.654Z,2.67
2022-09-17T00:58:57.110Z,2.60
2022-09-17T01:01:25.434Z,2.07
2022-09-17T01:03:53.225Z,2.47
2022-09-17T01:06:29.247Z,2.30
2022-09-17T01:09:13.981Z,2.87
2022-09-17T01:11:56.754Z,2.33
2022-09-17T01:14:40.493Z,3.07
2022-09-17T01:17:16.124Z,2.60
2022-09-17T01:20:13.195Z,3.40
2022-09-17T01:22:52.140Z,3.63
2022-09-17T01:25:24.967Z,2.50
2022-09-17T01:28:19.756Z,2.43
2022-09-17T01:31:04.999Z,2.63
2022-09-17T01:33:41.186Z,3.20
2022-09-17T01:36:21.728Z,2.33
2022-09-17T01:38:55.848Z,2.43
2022-09-17T01:41:32.751Z,2.60
2022-09-17T01:44:07.479Z,2.00
2022-09-17T01:46:41.394Z,1.97
2022-09-17T01:49:11.219Z,3.07
2022-09-17T01:51:42.252Z,2.40
2022-09-17T01:54:16.269Z,2.43
2022-09-17T01:56:49.126Z,2.33
2022-09-17T01:59:21.240Z,2.07
2022-09-17T02:01:54.897Z,2.40
2022-09-17T02:04:27.482Z,2.40
2022-09-17T02:07:00.590Z,2.10
2022-09-17T02:09:32.890Z,2.53
2022-09-17T02:12:04.763Z,3.00
2022-09-17T02:14:37.882Z,2.50
2022-09-17T02:17:13.916Z,2.33
2022-09-17T02:19:42.569Z,3.00
2022-09-17T02:22:22.233Z,2.93
2022-09-17T02:24:58.563Z,2.10
2022-09-17T02:27:38.040Z,2.43
2022-09-17T02:30:07.000Z,2.83
2022-09-17T02:32:37.285Z,2.27
2022-09-17T02:35:06.381Z,2.63
2022-09-17T02:37:34.432Z,3.20
2022-09-17T02:40:03.084Z,2.30
2022-09-17T02:42:37.664Z,2.63
2022-09-17T02:45:12.818Z,2.90
2022-09-17T02:48:03.213Z,2.67
2022-09-17T02:50:58.946Z,2.40
2022-09-17T02:53:38.151Z,2.20
2022-09-17T02:56:15.408Z,3.07
2022-09-17T02:58:48.922Z,3.13
2022-09-17T03:01:29.694Z,2.40
2022-09-17T03:04:02.726Z,2.30
2022-09-17T03:06:30.795Z,2.90
2022-09-17T03:08:58.594Z,2.97
2022-09-17T03:11:26.681Z,3.10
2022-09-17T03:13:55.003Z,2.97
2022-09-17T03:16:22.725Z,2.70
2022-09-17T03:18:50.445Z,4.37
2022-09-17T03:21:19.510Z,3.27
2022-09-17T03:23:48.079Z,2.57
2022-09-17T03:26:15.861Z,3.17
2022-09-17T03:28:43.587Z,2.73
2022-09-17T03:31:11.397Z,2.90
2022-09-17T03:33:39.152Z,3.53
2022-09-17T03:36:07.896Z,2.80
2022-09-17T03:38:38.442Z,2.97
2022-09-17T03:41:07.948Z,2.50
2022-09-17T03:43:36.073Z,2.73
2022-09-17T03:46:04.211Z,1.90
2022-09-17T03:48:32.271Z,2.60
2022-09-17T03:51:00.035Z,3.63
2022-09-17T03:53:27.744Z,2.07
2022-09-17T03:55:59.232Z,2.43
2022-09-17T03:58:26.911Z,2.17
2022-09-17T04:00:57.605Z,2.60
2022-09-17T04:03:25.857Z,2.70
2022-09-17T04:05:53.635Z,2.03
2022-09-17T04:08:21.778Z,3.10
2022-09-17T04:10:49.578Z,5.90
2022-09-17T04:13:19.038Z,6.50
2022-09-17T04:15:47.834Z,5.27
2022-09-17T04:18:16.018Z,4.27
2022-09-17T04:20:44.128Z,3.70
2022-09-17T04:23:12.922Z,3.33
2022-09-17T04:25:40.704Z,4.40
2022-09-17T04:28:08.442Z,7.33
2022-09-17T04:30:37.623Z,8.43
2022-09-17T04:33:05.844Z,6.43
2022-09-17T04:35:33.578Z,9.00
2022-09-17T04:38:01.287Z,11.00
2022-09-17T04:40:30.527Z,13.87
2022-09-17T04:43:02.958Z,9.23
2022-09-17T04:45:33.265Z,6.93
2022-09-17T04:48:02.932Z,4.20
2022-09-17T04:50:30.826Z,3.77
2022-09-17T04:52:58.934Z,3.87
2022-09-17T04:55:27.443Z,3.37
2022-09-17T04:57:55.448Z,3.67
2022-09-17T05:00:24.390Z,3.70
2022-09-17T05:02:54.351Z,2.33
2022-09-17T05:05:24.592Z,2.43
2022-09-17T05:07:52.322Z,2.70
2022-09-17T05:10:21.891Z,1.80
2022-09-17T05:12:50.720Z,2.10
2022-09-17T05:15:18.936Z,2.30
2022-09-17T05:17:47.122Z,3.43
2022-09-17T05:20:15.689Z,2.00
2022-09-17T05:22:46.654Z,2.50
2022-09-17T05:25:16.238Z,2.47
2022-09-17T05:27:44.246Z,2.40
2022-09-17T05:30:13.059Z,2.30
2022-09-17T05:32:41.037Z,2.30
2022-09-17T05:35:09.995Z,2.53
2022-09-17T05:37:38.420Z,2.17
2022-09-17T05:40:10.195Z,2.90
2022-09-17T05:42:38.052Z,3.83
2022-09-17T05:45:07.110Z,2.73
2022-09-17T05:47:35.334Z,1.87
2022-09-17T05:50:03.070Z,2.23
2022-09-17T05:52:30.856Z,2.40
2022-09-17T05:54:58.564Z,1.97
2022-09-17T05:57:30.357Z,2.17
2022-09-17T05:59:58.048Z,2.10
2022-09-17T06:02:25.878Z,2.40
2022-09-17T06:04:53.592Z,2.17
2022-09-17T06:07:21.679Z,2.47
2022-09-17T06:09:49.353Z,2.43
2022-09-17T06:12:17.821Z,1.83
2022-09-17T06:14:46.925Z,1.97
2022-09-17T06:17:17.919Z,2.37
2022-09-17T06:19:47.958Z,3.03
2022-09-17T06:22:15.672Z,2.43
2022-09-17T06:24:43.350Z,2.60
2022-09-17T06:27:11.086Z,2.23
2022-09-17T06:29:38.834Z,2.77
2022-09-17T06:32:10.928Z,2.20
2022-09-17T06:34:38.631Z,2.50
2022-09-17T06:37:06.681Z,2.80
2022-09-17T06:39:34.466Z,2.87
2022-09-17T06:42:02.193Z,2.50
2022-09-17T06:44:29.939Z,2.13
2022-09-17T06:46:58.061Z,2.40
2022-09-17T06:49:27.186Z,2.40
2022-09-17T06:51:54.920Z,2.73
2022-09-17T06:54:22.649Z,2.10
2022-09-17T06:56:50.376Z,2.77
2022-09-17T06:59:18.766Z,2.70
2022-09-17T07:01:47.376Z,1.80
2022-09-17T07:04:17.399Z,2.03
2022-09-17T07:06:46.696Z,2.53
2022-09-17T07:09:14.409Z,1.83
2022-09-17T07:11:42.188Z,2.20
2022-09-17T07:14:09.925Z,2.60
2022-09-17T07:16:38.517Z,2.60
2022-09-17T07:19:07.023Z,2.07
2022-09-17T07:21:34.756Z,1.87
2022-09-17T07:24:04.491Z,2.77
2022-09-17T07:26:32.227Z,2.53
2022-09-17T07:29:00.024Z,2.57
2022-09-17T07:31:27.937Z,2.70
2022-09-17T07:33:55.776Z,2.30
2022-09-17T07:36:23.461Z,2.63
2022-09-17T07:38:51.143Z,2.33
2022-09-17T07:41:20.276Z,3.07
2022-09-17T07:43:47.961Z,3.13
2022-09-17T07:46:17.357Z,2.30
2022-09-17T07:48:45.962Z,1.83
2022-09-17T07:51:17.595Z,1.67
2022-09-17T07:53:45.684Z,2.60
2022-09-17T07:56:13.493Z,2.47
2022-09-17T07:58:42.594Z,2.77
2022-09-17T08:01:12.449Z,2.17
2022-09-17T08:03:41.164Z,2.63
2022-09-17T08:06:10.170Z,2.80
2022-09-17T08:08:39.435Z,2.00
2022-09-17T08:11:08.771Z,2.20
2022-09-17T08:13:36.796Z,3.07
2022-09-17T08:16:08.479Z,2.13
2022-09-17T08:18:36.659Z,2.30
2022-09-17T08:21:06.476Z,2.50
2022-09-17T08:23:36.504Z,2.53
2022-09-17T08:26:06.038Z,2.07
2022-09-17T08:28:34.219Z,2.77
2022-09-17T08:31:03.406Z,2.13
2022-09-17T08:33:33.645Z,2.37
2022-09-17T08:36:01.451Z,2.33
2022-09-17T08:38:31.720Z,2.67
2022-09-17T08:41:12.585Z,2.50
2022-09-17T08:43:45.438Z,3.03
2022-09-17T08:46:13.549Z,1.90
2022-09-17T08:48:45.328Z,2.53
2022-09-17T08:51:28.547Z,2.77
2022-09-17T08:54:02.715Z,2.30
2022-09-17T08:56:34.343Z,2.10
2022-09-17T08:59:19.702Z,2.33
2022-09-17T09:01:57.673Z,1.80
2022-09-17T09:05:02.693Z,1.90
2022-09-17T09:07:35.629Z,2.33
2022-09-17T09:10:12.789Z,1.83
2022-09-17T09:12:41.743Z,2.00
2022-09-17T09:15:22.694Z,2.03
2022-09-17T09:17:52.467Z,2.47
2022-09-17T09:20:29.874Z,2.50
2022-09-17T09:23:01.958Z,2.93
2022-09-17T09:25:33.569Z,1.90
2022-09-17T09:28:11.994Z,2.57
2022-09-17T09:30:52.307Z,1.97
2022-09-17T09:33:28.399Z,1.87
2022-09-17T09:35:57.661Z,2.17
2022-09-17T09:38:32.298Z,2.20
2022-09-17T09:41:09.841Z,2.63
2022-09-17T09:44:02.826Z,1.80
2022-09-17T09:46:49.398Z,2.17
2022-09-17T09:49:27.833Z,1.73
2022-09-17T09:52:07.943Z,2.07
2022-09-17T09:54:51.702Z,2.00
2022-09-17T09:57:26.738Z,1.80
2022-09-17T10:00:23.318Z,1.97
2022-09-17T10:02:54.892Z,1.97
2022-09-17T10:05:22.699Z,1.90
2022-09-17T10:07:52.541Z,2.03
2022-09-17T10:10:20.830Z,2.00
2022-09-17T10:12:48.595Z,2.50
2022-09-17T10:15:25.902Z,1.77
2022-09-17T10:18:13.591Z,2.57
2022-09-17T10:20:55.857Z,2.57
2022-09-17T10:23:27.605Z,1.87
2022-09-17T10:25:56.589Z,2.00
2022-09-17T10:28:34.574Z,1.93
2022-09-17T10:31:08.860Z,2.13
2022-09-17T10:33:40.735Z,2.17
2022-09-17T10:36:10.125Z,2.13
2022-09-17T10:38:40.721Z,2.00
2022-09-17T10:41:16.980Z,1.60
2022-09-17T10:43:45.298Z,2.00
2022-09-17T10:46:27.936Z,2.00
2022-09-17T10:49:09.345Z,2.40
2022-09-17T10:51:38.466Z,1.87
2022-09-17T10:54:29.962Z,1.83
2022-09-17T10:57:00.561Z,1.87
2022-09-17T10:59:56.408Z,1.90
2022-09-17T11:03:01.038Z,1.77
2022-09-17T11:05:46.139Z,1.80
2022-09-17T11:08:20.516Z,1.90
2022-09-17T11:10:59.219Z,1.70
2022-09-17T11:13:37.807Z,2.00
2022-09-17T11:16:15.918Z,1.47
2022-09-17T11:18:46.581Z,1.83
2022-09-17T11:21:42.750Z,1.57
2022-09-17T11:24:48.866Z,1.60
2022-09-17T11:27:49.918Z,2.30
2022-09-17T11:30:20.226Z,1.90
2022-09-17T11:33:29.372Z,1.90
2022-09-17T11:36:00.347Z,2.07
2022-09-17T11:38:31.547Z,2.27
2022-09-17T11:41:04.185Z,2.03
2022-09-17T11:43:35.848Z,1.73
2022-09-17T11:46:09.695Z,1.93
2022-09-17T11:48:44.440Z,2.10
2022-09-17T11:51:23.494Z,2.07
2022-09-17T11:53:54.282Z,1.60
2022-09-17T11:56:26.715Z,1.53
2022-09-17T11:59:01.375Z,1.67
2022-09-17T12:01:36.965Z,2.23
2022-09-17T12:04:20.951Z,2.40
2022-09-17T12:06:54.781Z,2.10
2022-09-17T12:09:26.771Z,4.03
2022-09-17T12:12:01.408Z,1.57
2022-09-17T12:14:39.182Z,1.60
2022-09-17T12:17:08.159Z,1.30
2022-09-17T12:19:40.883Z,1.37
2022-09-17T12:22:11.985Z,1.40
2022-09-17T12:24:40.334Z,1.30
2022-09-17T12:27:30.210Z,1.23
2022-09-17T12:30:09.489Z,1.13
2022-09-17T12:32:58.617Z,1.50
2022-09-17T12:39:03.523Z,1.17
2022-09-17T12:41:43.802Z,1.53
2022-09-17T12:44:46.515Z,1.17
2022-09-17T12:47:34.236Z,1.20
2022-09-17T12:50:15.696Z,1.30
2022-09-17T12:52:58.906Z,1.37
2022-09-17T12:55:35.375Z,1.53
2022-09-17T12:58:14.031Z,1.53
2022-09-17T13:00:45.862Z,2.00
2022-09-17T13:03:20.975Z,2.40
2022-09-17T13:06:23.423Z,2.17
2022-09-17T13:09:08.299Z,1.70
2022-09-17T13:11:52.733Z,1.50
2022-09-17T13:14:28.577Z,2.07
2022-09-17T13:17:02.052Z,2.23
2022-09-17T13:19:39.291Z,1.50
2022-09-17T13:22:10.608Z,1.60
2022-09-17T13:24:38.556Z,1.17
2022-09-17T13:27:07.436Z,1.40
2022-09-17T13:30:00.557Z,1.73
2022-09-17T13:32:44.506Z,1.87
2022-09-17T13:35:51.522Z,1.47
2022-09-17T13:38:24.465Z,1.53
2022-09-17T13:40:53.286Z,1.83
2022-09-17T13:43:27.007Z,1.20
2022-09-17T13:46:15.494Z,1.60
2022-09-17T13:48:50.566Z,1.70
2022-09-17T13:52:03.983Z,1.40
2022-09-17T13:54:39.720Z,1.20
2022-09-17T13:57:14.539Z,1.30
2022-09-17T13:59:55.181Z,1.30
2022-09-17T14:02:37.959Z,1.57
2022-09-17T14:05:33.319Z,1.00
2022-09-17T14:08:28.556Z,1.20
2022-09-17T14:10:59.852Z,1.30
2022-09-17T14:13:44.683Z,1.57
2022-09-17T14:16:37.013Z,1.10
2022-09-17T14:19:22.228Z,1.00
2022-09-17T14:22:00.377Z,1.20
2022-09-17T14:24:35.978Z,1.20
2022-09-17T14:27:20.189Z,1.40
2022-09-17T14:30:04.910Z,1.00
2022-09-17T14:32:40.235Z,1.20
2022-09-17T14:35:20.153Z,1.40
2022-09-17T14:37:53.500Z,0.97
2022-09-17T14:40:23.944Z,1.03
2022-09-17T14:42:56.587Z,0.90
2022-09-17T14:45:29.001Z,1.23
2022-09-17T14:48:27.870Z,0.97
2022-09-17T14:51:17.653Z,1.10
2022-09-17T14:53:45.447Z,1.00
2022-09-17T14:56:16.146Z,1.53
2022-09-17T14:58:49.377Z,1.10
2022-09-17T15:01:25.025Z,1.23
2022-09-17T15:04:21.165Z,1.40
2022-09-17T15:06:48.898Z,1.20
2022-09-17T15:09:17.741Z,1.50
2022-09-17T15:11:47.994Z,1.90
2022-09-17T15:14:21.273Z,1.27
2022-09-17T15:16:51.512Z,1.37
2022-09-17T15:19:24.724Z,1.50
2022-09-17T15:21:55.379Z,1.33
2022-09-17T15:24:39.089Z,1.60
2022-09-17T15:27:13.774Z,1.20
2022-09-17T15:29:46.310Z,1.23
2022-09-17T15:32:15.472Z,1.50
2022-09-17T15:34:43.299Z,1.20
2022-09-17T15:37:19.377Z,3.50
2022-09-17T15:39:52.118Z,2.60
2022-09-17T15:42:22.877Z,1.77
2022-09-17T15:44:52.098Z,2.17
2022-09-17T15:47:52.137Z,1.50
2022-09-17T15:50:21.753Z,1.87
2022-09-17T15:52:50.233Z,1.70
2022-09-17T15:55:33.153Z,1.57
2022-09-17T15:58:02.232Z,2.23
2022-09-17T16:00:31.892Z,1.63
2022-09-17T16:02:59.674Z,1.70
2022-09-17T16:05:50.863Z,1.40
2022-09-17T16:08:25.699Z,1.83
2022-09-17T16:10:53.543Z,1.70
2022-09-17T16:13:24.135Z,1.20
2022-09-17T16:15:57.566Z,1.57
2022-09-17T16:18:25.897Z,1.80
2022-09-17T16:20:53.582Z,1.70
2022-09-17T16:23:21.350Z,1.60
2022-09-17T16:25:49.554Z,2.67
2022-09-17T16:28:20.257Z,2.53
2022-09-17T16:30:49.464Z,1.77
2022-09-17T16:33:19.879Z,2.40
2022-09-17T16:35:47.591Z,2.00
2022-09-17T16:38:16.336Z,3.20
2022-09-17T16:40:46.562Z,3.70
2022-09-17T16:43:14.655Z,2.60
2022-09-17T16:45:42.817Z,2.03
2022-09-17T16:48:10.819Z,2.27
2022-09-17T16:50:42.961Z,1.97
2022-09-17T16:53:10.718Z,2.80
2022-09-17T16:55:39.785Z,2.90
2022-09-17T16:58:07.586Z,2.60
2022-09-17T17:00:35.577Z,2.90
2022-09-17T17:03:03.986Z,2.30
2022-09-17T17:05:32.420Z,3.17
2022-09-17T17:08:06.484Z,2.70
2022-09-17T17:10:34.997Z,2.30
2022-09-17T17:13:02.897Z,2.60
2022-09-17T17:15:30.693Z,1.90
2022-09-17T17:17:59.323Z,2.00
2022-09-17T17:20:27.198Z,2.10
2022-09-17T17:22:55.991Z,2.30
2022-09-17T17:25:26.937Z,3.07
2022-09-17T17:27:54.730Z,2.13
2022-09-17T17:30:22.767Z,2.47
2022-09-17T17:32:51.913Z,2.43
2022-09-17T17:35:20.423Z,2.23
2022-09-17T17:37:48.690Z,2.13
2022-09-17T17:40:16.827Z,2.40
2022-09-17T17:42:47.443Z,2.17
2022-09-17T17:45:15.912Z,2.20
2022-09-17T17:47:43.660Z,1.80
2022-09-17T17:50:11.687Z,1.97
2022-09-17T17:52:40.298Z,1.93
2022-09-17T17:55:08.978Z,1.73
2022-09-17T17:57:36.772Z,2.07
2022-09-17T18:00:07.184Z,2.40
2022-09-17T18:02:35.020Z,2.00
2022-09-17T18:05:04.522Z,2.30
2022-09-17T18:07:32.479Z,2.40
2022-09-17T18:10:00.286Z,1.67
2022-09-17T18:12:28.114Z,2.30
2022-09-17T18:14:55.789Z,1.90
2022-09-17T18:17:24.947Z,1.53
2022-09-17T18:19:52.669Z,1.67
2022-09-17T18:22:20.819Z,2.07
2022-09-17T18:24:48.543Z,1.50
2022-09-17T18:27:16.323Z,2.23
2022-09-17T18:29:44.232Z,2.00
2022-09-17T18:32:11.925Z,2.33
2022-09-17T18:34:42.270Z,2.43
2022-09-17T18:37:11.209Z,1.90
2022-09-17T18:42:26.650Z,2.13
2022-09-17T18:44:54.340Z,1.93
2022-09-17T18:47:21.995Z,2.30
2022-09-17T18:49:51.104Z,1.90
2022-09-17T18:52:18.821Z,2.50
2022-09-17T18:54:46.818Z,1.80
2022-09-17T18:57:14.820Z,1.67
2022-09-17T18:59:42.583Z,1.63
2022-09-17T19:02:13.014Z,2.27
2022-09-17T19:04:40.978Z,1.77
2022-09-17T19:07:10.251Z,2.00
2022-09-17T19:09:38.237Z,2.10
2022-09-17T19:12:06.160Z,2.37
2022-09-17T19:14:33.998Z,2.67
2022-09-17T19:17:01.757Z,3.27
2022-09-17T19:19:29.958Z,2.37
2022-09-17T19:21:57.692Z,2.73
2022-09-17T19:24:26.815Z,2.80
2022-09-17T19:26:54.618Z,2.80
2022-09-17T19:29:22.366Z,2.43
2022-09-17T19:31:50.306Z,2.80
2022-09-17T19:34:18.090Z,2.73
2022-09-17T19:36:45.960Z,2.17
2022-09-17T19:39:13.869Z,2.37
2022-09-17T19:41:43.019Z,2.23
2022-09-17T19:44:11.047Z,2.10
2022-09-17T19:46:38.817Z,2.20
2022-09-17T19:49:06.956Z,2.00
2022-09-17T19:51:35.242Z,2.77
2022-09-17T19:54:03.016Z,2.97
2022-09-17T19:56:30.734Z,3.47
2022-09-17T19:58:59.813Z,7.17
2022-09-17T20:01:27.580Z,14.43
2022-09-17T20:03:55.458Z,20.50
2022-09-17T20:06:23.883Z,20.30
2022-09-17T20:08:53.404Z,15.43
2022-09-17T20:11:23.250Z,8.60
2022-09-17T20:13:51.523Z,7.00
2022-09-17T20:16:22.663Z,3.70
2022-09-17T20:18:51.029Z,2.43
2022-09-17T20:21:21.141Z,3.00
2022-09-17T20:23:48.925Z,1.97
2022-09-17T20:26:17.479Z,2.10
2022-09-17T20:28:45.557Z,2.30
2022-09-17T20:31:15.731Z,1.70
2022-09-17T20:33:45.040Z,2.90
2022-09-17T20:36:14.937Z,2.10
2022-09-17T20:39:11.425Z,1.73
2022-09-17T20:41:31.460Z,2.47
2022-09-17T20:43:59.806Z,2.10
2022-09-17T20:46:29.483Z,2.17
2022-09-17T20:48:59.054Z,2.10
2022-09-17T20:51:28.033Z,1.93
2022-09-17T20:53:56.981Z,3.10
2022-09-17T20:56:26.391Z,1.87
2022-09-17T20:59:00.057Z,2.37
2022-09-17T21:01:32.834Z,2.40
2022-09-17T21:04:03.674Z,2.43
2022-09-17T21:06:33.195Z,2.57
2022-09-17T21:09:01.661Z,2.80
2022-09-17T21:11:31.071Z,2.33
2022-09-17T21:14:00.150Z,2.13
2022-09-17T21:16:28.321Z,3.00
2022-09-17T21:18:57.892Z,1.93
2022-09-17T21:21:27.145Z,1.77
2022-09-17T21:23:54.933Z,2.10
2022-09-17T21:26:24.162Z,1.63
2022-09-17T21:28:53.487Z,2.33
2022-09-17T21:31:22.964Z,2.30
2022-09-17T21:33:54.144Z,2.20
2022-09-17T21:36:23.146Z,1.97
2022-09-17T21:38:53.382Z,1.53
2022-09-17T21:41:22.101Z,1.60
2022-09-17T21:43:51.731Z,1.80
2022-09-17T21:46:22.078Z,1.67
2022-09-17T21:48:51.608Z,1.37
2022-09-17T21:51:20.837Z,1.97
2022-09-17T21:53:52.836Z,2.10
2022-09-17T21:56:21.625Z,2.27
2022-09-17T21:58:53.335Z,1.73
2022-09-17T22:01:23.486Z,1.93
2022-09-17T22:03:51.482Z,2.20
2022-09-17T22:06:22.373Z,2.10
2022-09-17T22:08:52.438Z,1.90
2022-09-17T22:11:22.040Z,2.27
2022-09-17T22:13:53.879Z,2.30
2022-09-17T22:16:22.587Z,1.90
2022-09-17T22:18:51.389Z,1.70
2022-09-17T22:21:22.927Z,1.77
2022-09-17T22:23:53.189Z,2.00
2022-09-17T22:26:22.001Z,2.03
2022-09-17T22:28:50.217Z,1.63
2022-09-17T22:31:18.896Z,1.43
2022-09-17T22:33:47.974Z,1.80
2022-09-17T22:36:16.969Z,1.50
2022-09-17T22:38:47.994Z,2.03
2022-09-17T22:41:19.641Z,2.17
2022-09-17T22:43:47.889Z,2.03
2022-09-17T22:46:19.444Z,1.97
2022-09-17T22:48:47.963Z,2.07
2022-09-17T22:51:16.062Z,1.70
2022-09-17T22:53:44.422Z,1.30
2022-09-17T22:56:14.282Z,2.93
2022-09-17T22:58:43.692Z,2.00
2022-09-17T23:01:15.544Z,2.37
2022-09-17T23:03:44.030Z,1.87
2022-09-17T23:06:13.450Z,1.40
2022-09-17T23:08:41.678Z,1.40
2022-09-17T23:11:16.052Z,1.60
2022-09-17T23:13:45.140Z,1.53
2022-09-17T23:16:12.955Z,2.33
2022-09-17T23:18:40.800Z,1.60
2022-09-17T23:21:13.227Z,0.90
2022-09-17T23:23:42.182Z,1.60
2022-09-17T23:26:12.678Z,2.00
2022-09-17T23:28:40.687Z,1.90
2022-09-17T23:31:10.687Z,1.30
2022-09-17T23:33:38.596Z,1.77
2022-09-17T23:36:07.307Z,1.40
2022-09-17T23:38:35.472Z,1.37
2022-09-17T23:41:10.896Z,1.30
2022-09-17T23:43:38.618Z,1.33
2022-09-17T23:46:06.676Z,1.30
2022-09-17T23:48:35.802Z,1.50
2022-09-17T23:51:04.062Z,1.67
2022-09-17T23:53:32.828Z,1.40
2022-09-17T23:56:01.280Z,1.20
2022-09-17T23:58:30.326Z,1.67
